createdAt,value
2019-01-29T00:00:20.693Z,997.13
2019-01-29T00:01:20.711Z,997.09
2019-01-29T00:02:20.734Z,997.11
2019-01-29T00:03:20.757Z,997.12
2019-01-29T00:04:20.778Z,997.13
2019-01-29T00:05:20.797Z,997.14
2019-01-29T00:06:20.818Z,997.13
2019-01-29T00:07:20.842Z,997.13
2019-01-29T00:08:20.862Z,997.12
2019-01-29T00:09:20.882Z,997.18
2019-01-29T00:10:20.910Z,997.13
2019-01-29T00:11:20.928Z,997.10
2019-01-29T00:12:20.958Z,997.12
2019-01-29T00:13:20.970Z,997.17
2019-01-29T00:14:20.990Z,997.14
2019-01-29T00:15:21.011Z,997.14
2019-01-29T00:16:21.038Z,997.19
2019-01-29T00:17:21.055Z,997.17
2019-01-29T00:18:21.077Z,997.14
2019-01-29T00:19:21.098Z,997.21
2019-01-29T00:20:21.118Z,997.21
2019-01-29T00:21:21.138Z,997.18
2019-01-29T00:22:21.159Z,997.21
2019-01-29T00:23:21.183Z,997.22
2019-01-29T00:24:21.201Z,997.25
2019-01-29T00:25:21.222Z,997.24
2019-01-29T00:26:21.245Z,997.26
2019-01-29T00:27:21.272Z,997.27
2019-01-29T00:28:21.293Z,997.29
2019-01-29T00:29:21.310Z,997.23
2019-01-29T00:30:21.330Z,997.19
2019-01-29T00:31:21.354Z,997.24
2019-01-29T00:32:21.374Z,997.26
2019-01-29T00:33:21.394Z,997.24
2019-01-29T00:34:21.415Z,997.25
2019-01-29T00:35:21.438Z,997.21
2019-01-29T00:36:21.457Z,997.23
2019-01-29T00:37:21.478Z,997.26
2019-01-29T00:38:21.499Z,997.23
2019-01-29T00:39:21.521Z,997.25
2019-01-29T00:40:21.546Z,997.26
2019-01-29T00:41:21.565Z,997.32
2019-01-29T00:42:21.586Z,997.34
2019-01-29T00:43:21.608Z,997.26
2019-01-29T00:44:21.630Z,997.35
2019-01-29T00:45:21.647Z,997.35
2019-01-29T00:46:21.669Z,997.31
2019-01-29T00:47:21.693Z,997.36
2019-01-29T00:48:21.713Z,997.32
2019-01-29T00:49:22.778Z,997.38
2019-01-29T00:50:21.754Z,997.38
2019-01-29T00:51:21.778Z,997.40
2019-01-29T00:52:21.800Z,997.44
2019-01-29T00:53:21.824Z,997.42
2019-01-29T00:54:21.838Z,997.40
2019-01-29T00:55:21.863Z,997.41
2019-01-29T00:56:21.881Z,997.40
2019-01-29T00:57:21.906Z,997.42
2019-01-29T00:58:21.927Z,997.41
2019-01-29T00:59:21.948Z,997.44
2019-01-29T01:00:21.975Z,997.44
2019-01-29T01:01:21.999Z,997.42
2019-01-29T01:02:22.009Z,997.44
2019-01-29T01:03:22.032Z,997.44
2019-01-29T01:04:22.054Z,997.40
2019-01-29T01:05:22.075Z,997.46
2019-01-29T01:06:22.096Z,997.49
2019-01-29T01:07:22.116Z,997.48
2019-01-29T01:08:22.136Z,997.47
2019-01-29T01:09:22.158Z,997.48
2019-01-29T01:10:22.180Z,997.47
2019-01-29T01:11:22.203Z,997.50
2019-01-29T01:12:22.222Z,997.49
2019-01-29T01:13:22.242Z,997.52
2019-01-29T01:14:22.266Z,997.52
2019-01-29T01:15:22.287Z,997.54
2019-01-29T01:16:22.316Z,997.59
2019-01-29T01:17:22.331Z,997.55
2019-01-29T01:18:22.352Z,997.60
2019-01-29T01:19:22.373Z,997.60
2019-01-29T01:20:22.394Z,997.56
2019-01-29T01:21:22.416Z,997.62
2019-01-29T01:22:22.434Z,997.61
2019-01-29T01:23:22.458Z,997.60
2019-01-29T01:24:22.479Z,997.62
2019-01-29T01:25:22.501Z,997.61
2019-01-29T01:26:22.522Z,997.62
2019-01-29T01:27:22.542Z,997.60
2019-01-29T01:28:22.562Z,997.63
2019-01-29T01:29:22.587Z,997.62
2019-01-29T01:30:22.606Z,997.64
2019-01-29T01:31:22.628Z,997.66
2019-01-29T01:32:22.650Z,997.69
2019-01-29T01:33:22.681Z,997.69
2019-01-29T01:34:25.733Z,997.76
2019-01-29T01:35:22.712Z,997.76
2019-01-29T01:36:22.735Z,997.79
2019-01-29T01:37:22.757Z,997.75
2019-01-29T01:38:22.778Z,997.79
2019-01-29T01:39:22.798Z,997.81
2019-01-29T01:40:22.820Z,997.84
2019-01-29T01:41:22.844Z,997.89
2019-01-29T01:42:22.873Z,997.84
2019-01-29T01:43:22.888Z,997.89
2019-01-29T01:44:22.903Z,997.89
2019-01-29T01:45:22.928Z,997.87
2019-01-29T01:46:22.946Z,997.91
2019-01-29T01:47:22.975Z,997.92
2019-01-29T01:48:22.988Z,997.97
2019-01-29T01:49:23.023Z,997.92
2019-01-29T01:50:23.033Z,997.94
2019-01-29T01:51:23.056Z,997.88
2019-01-29T01:52:23.079Z,997.87
2019-01-29T01:53:23.096Z,997.91
2019-01-29T01:54:23.118Z,997.89
2019-01-29T01:55:23.138Z,997.87
2019-01-29T01:56:23.157Z,997.86
2019-01-29T01:57:23.178Z,997.84
2019-01-29T01:58:23.201Z,997.88
2019-01-29T01:59:23.222Z,997.90
2019-01-29T02:00:23.244Z,997.89
2019-01-29T02:01:23.264Z,997.90
2019-01-29T02:02:23.287Z,997.91
2019-01-29T02:03:23.309Z,997.96
2019-01-29T02:04:23.331Z,997.93
2019-01-29T02:05:23.351Z,997.94
2019-01-29T02:06:23.370Z,997.98
2019-01-29T02:07:23.394Z,997.99
2019-01-29T02:08:23.411Z,998.04
2019-01-29T02:09:23.436Z,998.06
2019-01-29T02:10:23.454Z,998.06
2019-01-29T02:11:23.476Z,997.96
2019-01-29T02:12:25.508Z,998.06
2019-01-29T02:13:23.530Z,998.00
2019-01-29T02:14:23.541Z,998.03
2019-01-29T02:15:23.565Z,998.02
2019-01-29T02:16:23.583Z,998.06
2019-01-29T02:17:23.601Z,998.05
2019-01-29T02:18:23.623Z,998.07
2019-01-29T02:19:23.646Z,998.09
2019-01-29T02:20:23.665Z,998.11
2019-01-29T02:21:23.686Z,998.16
2019-01-29T02:22:23.707Z,998.16
2019-01-29T02:23:23.728Z,998.14
2019-01-29T02:24:23.751Z,998.19
2019-01-29T02:25:23.773Z,998.15
2019-01-29T02:26:23.793Z,998.18
2019-01-29T02:27:23.815Z,998.18
2019-01-29T02:28:23.844Z,998.18
2019-01-29T02:29:23.862Z,998.21
2019-01-29T02:30:23.877Z,998.21
2019-01-29T02:31:23.899Z,998.19
2019-01-29T02:32:23.925Z,998.25
2019-01-29T02:33:25.183Z,998.24
2019-01-29T02:34:23.962Z,998.18
2019-01-29T02:35:23.981Z,998.16
2019-01-29T02:36:24.001Z,998.20
2019-01-29T02:37:24.019Z,998.25
2019-01-29T02:38:24.041Z,998.26
2019-01-29T02:39:24.063Z,998.27
2019-01-29T02:40:24.085Z,998.29
2019-01-29T02:41:24.104Z,998.31
2019-01-29T02:42:24.132Z,998.29
2019-01-29T02:43:24.147Z,998.29
2019-01-29T02:44:24.167Z,998.34
2019-01-29T02:45:24.188Z,998.33
2019-01-29T02:46:24.220Z,998.34
2019-01-29T02:47:24.228Z,998.32
2019-01-29T02:48:24.248Z,998.32
2019-01-29T02:49:24.286Z,998.31
2019-01-29T02:50:24.291Z,998.35
2019-01-29T02:51:24.315Z,998.38
2019-01-29T02:52:24.335Z,998.36
2019-01-29T02:53:24.355Z,998.37
2019-01-29T02:54:24.373Z,998.39
2019-01-29T02:55:24.398Z,998.40
2019-01-29T02:56:24.418Z,998.42
2019-01-29T02:57:24.437Z,998.46
2019-01-29T02:58:24.457Z,998.46
2019-01-29T02:59:24.480Z,998.40
2019-01-29T03:00:24.502Z,998.42
2019-01-29T03:01:24.521Z,998.41
2019-01-29T03:02:24.543Z,998.42
2019-01-29T03:03:24.563Z,998.42
2019-01-29T03:04:24.584Z,998.46
2019-01-29T03:05:24.606Z,998.42
2019-01-29T03:06:24.627Z,998.41
2019-01-29T03:07:24.646Z,998.43
2019-01-29T03:08:24.669Z,998.45
2019-01-29T03:09:24.687Z,998.44
2019-01-29T03:10:24.712Z,998.41
2019-01-29T03:11:24.731Z,998.45
2019-01-29T03:12:24.753Z,998.45
2019-01-29T03:13:24.770Z,998.44
2019-01-29T03:14:24.793Z,998.44
2019-01-29T03:15:24.818Z,998.45
2019-01-29T03:16:24.838Z,998.45
2019-01-29T03:17:24.859Z,998.43
2019-01-29T03:18:24.883Z,998.47
2019-01-29T03:19:24.896Z,998.50
2019-01-29T03:20:24.928Z,998.47
2019-01-29T03:21:24.939Z,998.46
2019-01-29T03:22:24.960Z,998.46
2019-01-29T03:23:27.734Z,998.45
2019-01-29T03:24:25.012Z,998.49
2019-01-29T03:25:25.021Z,998.46
2019-01-29T03:26:25.046Z,998.48
2019-01-29T03:27:25.064Z,998.44
2019-01-29T03:28:25.084Z,998.48
2019-01-29T03:29:25.106Z,998.41
2019-01-29T03:30:25.222Z,998.40
2019-01-29T03:31:25.146Z,998.36
2019-01-29T03:32:25.172Z,998.35
2019-01-29T03:33:25.190Z,998.35
2019-01-29T03:34:25.208Z,998.30
2019-01-29T03:35:25.229Z,998.33
2019-01-29T03:36:25.250Z,998.32
2019-01-29T03:37:25.269Z,998.39
2019-01-29T03:38:25.293Z,998.35
2019-01-29T03:39:25.311Z,998.41
2019-01-29T03:40:25.332Z,998.41
2019-01-29T03:41:25.351Z,998.38
2019-01-29T03:42:25.372Z,998.41
2019-01-29T03:43:25.397Z,998.44
2019-01-29T03:44:25.414Z,998.42
2019-01-29T03:45:25.443Z,998.43
2019-01-29T03:46:25.457Z,998.39
2019-01-29T03:47:25.479Z,998.47
2019-01-29T03:48:25.500Z,998.40
2019-01-29T03:49:25.520Z,998.41
2019-01-29T03:50:25.538Z,998.45
2019-01-29T03:51:25.570Z,998.45
2019-01-29T03:52:25.581Z,998.49
2019-01-29T03:53:25.604Z,998.46
2019-01-29T03:54:25.623Z,998.44
2019-01-29T03:55:25.645Z,998.49
2019-01-29T03:56:25.666Z,998.50
2019-01-29T03:57:25.689Z,998.55
2019-01-29T03:58:25.708Z,998.53
2019-01-29T03:59:25.731Z,998.56
2019-01-29T04:00:25.748Z,998.55
2019-01-29T04:01:25.767Z,998.55
2019-01-29T04:02:25.791Z,998.51
2019-01-29T04:03:25.813Z,998.57
2019-01-29T04:04:25.832Z,998.54
2019-01-29T04:05:25.854Z,998.57
2019-01-29T04:06:25.872Z,998.55
2019-01-29T04:07:25.900Z,998.55
2019-01-29T04:08:25.917Z,998.52
2019-01-29T04:09:25.938Z,998.57
2019-01-29T04:10:25.958Z,998.56
2019-01-29T04:11:25.976Z,998.57
2019-01-29T04:12:25.997Z,998.55
2019-01-29T04:13:26.017Z,998.61
2019-01-29T04:14:26.043Z,998.61
2019-01-29T04:15:26.063Z,998.54
2019-01-29T04:16:26.082Z,998.59
2019-01-29T04:17:26.103Z,998.61
2019-01-29T04:18:26.124Z,998.60
2019-01-29T04:19:26.143Z,998.62
2019-01-29T04:20:26.192Z,998.61
2019-01-29T04:21:26.187Z,998.60
2019-01-29T04:22:26.205Z,998.65
2019-01-29T04:23:26.227Z,998.59
2019-01-29T04:24:26.250Z,998.60
2019-01-29T04:25:26.273Z,998.61
2019-01-29T04:26:26.290Z,998.65
2019-01-29T04:27:26.309Z,998.66
2019-01-29T04:28:26.331Z,998.63
2019-01-29T04:29:26.352Z,998.64
2019-01-29T04:30:26.389Z,998.70
2019-01-29T04:31:26.394Z,998.72
2019-01-29T04:32:26.412Z,998.71
2019-01-29T04:33:26.438Z,998.75
2019-01-29T04:34:26.456Z,998.67
2019-01-29T04:35:26.479Z,998.65
2019-01-29T04:36:26.540Z,998.70
2019-01-29T04:37:26.518Z,998.65
2019-01-29T04:38:26.539Z,998.72
2019-01-29T04:39:26.560Z,998.73
2019-01-29T04:40:26.581Z,998.68
2019-01-29T04:41:26.608Z,998.76
2019-01-29T04:42:26.622Z,998.76
2019-01-29T04:43:26.644Z,998.73
2019-01-29T04:44:26.662Z,998.68
2019-01-29T04:45:26.688Z,998.72
2019-01-29T04:46:26.713Z,998.67
2019-01-29T04:47:26.728Z,998.70
2019-01-29T04:48:26.752Z,998.75
2019-01-29T04:49:26.769Z,998.75
2019-01-29T04:50:26.799Z,998.79
2019-01-29T04:51:26.811Z,998.74
2019-01-29T04:52:26.834Z,998.78
2019-01-29T04:53:26.853Z,998.79
2019-01-29T04:54:26.874Z,998.72
2019-01-29T04:55:26.892Z,998.73
2019-01-29T04:56:26.916Z,998.75
2019-01-29T04:57:26.932Z,998.65
2019-01-29T04:58:26.956Z,998.66
2019-01-29T04:59:26.977Z,998.65
2019-01-29T05:00:27.008Z,998.65
2019-01-29T05:01:27.019Z,998.66
2019-01-29T05:02:27.052Z,998.64
2019-01-29T05:03:27.060Z,998.68
2019-01-29T05:04:27.081Z,998.68
2019-01-29T05:05:27.107Z,998.65
2019-01-29T05:06:27.123Z,998.65
2019-01-29T05:07:27.141Z,998.63
2019-01-29T05:08:27.161Z,998.69
2019-01-29T05:09:27.186Z,998.68
2019-01-29T05:10:27.202Z,998.64
2019-01-29T05:11:27.228Z,998.62
2019-01-29T05:12:27.246Z,998.62
2019-01-29T05:13:27.267Z,998.64
2019-01-29T05:14:27.291Z,998.66
2019-01-29T05:15:27.307Z,998.64
2019-01-29T05:16:27.330Z,998.65
2019-01-29T05:17:27.348Z,998.64
2019-01-29T05:18:27.370Z,998.66
2019-01-29T05:19:27.392Z,998.64
2019-01-29T05:20:27.410Z,998.64
2019-01-29T05:21:27.432Z,998.62
2019-01-29T05:22:27.454Z,998.61
2019-01-29T05:23:27.475Z,998.60
2019-01-29T05:24:27.499Z,998.61
2019-01-29T05:25:27.518Z,998.65
2019-01-29T05:26:27.537Z,998.67
2019-01-29T05:27:27.558Z,998.66
2019-01-29T05:28:27.575Z,998.61
2019-01-29T05:29:27.601Z,998.67
2019-01-29T05:30:27.633Z,998.69
2019-01-29T05:31:27.639Z,998.69
2019-01-29T05:32:27.660Z,998.67
2019-01-29T05:33:27.685Z,998.71
2019-01-29T05:34:27.705Z,998.72
2019-01-29T05:35:27.724Z,998.70
2019-01-29T05:36:27.741Z,998.67
2019-01-29T05:37:27.767Z,998.65
2019-01-29T05:38:27.785Z,998.70
2019-01-29T05:39:27.804Z,998.70
2019-01-29T05:40:27.828Z,998.74
2019-01-29T05:41:27.849Z,998.74
2019-01-29T05:42:27.866Z,998.77
2019-01-29T05:43:27.888Z,998.74
2019-01-29T05:44:27.906Z,998.72
2019-01-29T05:45:27.929Z,998.74
2019-01-29T05:46:27.953Z,998.76
2019-01-29T05:47:27.972Z,998.73
2019-01-29T05:48:27.989Z,998.76
2019-01-29T05:49:28.012Z,998.71
2019-01-29T05:50:28.031Z,998.72
2019-01-29T05:51:28.055Z,998.72
2019-01-29T05:52:28.073Z,998.76
2019-01-29T05:53:28.103Z,998.73
2019-01-29T05:54:28.115Z,998.71
2019-01-29T05:55:28.145Z,998.69
2019-01-29T05:56:28.157Z,998.69
2019-01-29T05:57:28.192Z,998.69
2019-01-29T05:58:28.211Z,998.73
2019-01-29T05:59:28.217Z,998.74
2019-01-29T06:00:28.238Z,998.63
2019-01-29T06:01:28.258Z,998.63
2019-01-29T06:02:28.280Z,998.67
2019-01-29T06:03:28.302Z,998.67
2019-01-29T06:04:28.321Z,998.66
2019-01-29T06:05:28.345Z,998.64
2019-01-29T06:06:28.363Z,998.67
2019-01-29T06:07:28.382Z,998.68
2019-01-29T06:08:28.404Z,998.67
2019-01-29T06:09:28.421Z,998.70
2019-01-29T06:10:28.448Z,998.70
2019-01-29T06:11:28.468Z,998.68
2019-01-29T06:12:28.486Z,998.73
2019-01-29T06:13:28.507Z,998.65
2019-01-29T06:14:28.530Z,998.72
2019-01-29T06:15:28.546Z,998.67
2019-01-29T06:16:28.568Z,998.73
2019-01-29T06:17:28.592Z,998.69
2019-01-29T06:18:28.610Z,998.79
2019-01-29T06:19:28.632Z,998.73
2019-01-29T06:20:28.654Z,998.75
2019-01-29T06:21:28.673Z,998.78
2019-01-29T06:22:28.692Z,998.78
2019-01-29T06:23:28.715Z,998.75
2019-01-29T06:24:28.733Z,998.80
2019-01-29T06:25:28.766Z,998.76
2019-01-29T06:26:28.779Z,998.79
2019-01-29T06:27:28.796Z,998.79
2019-01-29T06:28:28.816Z,998.83
2019-01-29T06:29:28.837Z,998.81
2019-01-29T06:30:28.858Z,998.83
2019-01-29T06:31:28.879Z,998.80
2019-01-29T06:32:28.898Z,998.78
2019-01-29T06:33:28.918Z,998.83
2019-01-29T06:34:28.941Z,998.80
2019-01-29T06:35:28.959Z,998.80
2019-01-29T06:36:28.979Z,998.83
2019-01-29T06:37:29.019Z,998.85
2019-01-29T06:38:29.020Z,998.82
2019-01-29T06:39:29.044Z,998.81
2019-01-29T06:40:29.063Z,998.88
2019-01-29T06:41:29.083Z,998.86
2019-01-29T06:42:29.107Z,998.91
2019-01-29T06:43:29.126Z,998.91
2019-01-29T06:44:29.144Z,998.92
2019-01-29T06:45:29.166Z,998.96
2019-01-29T06:46:29.186Z,998.93
2019-01-29T06:47:29.210Z,998.92
2019-01-29T06:48:29.226Z,998.89
2019-01-29T06:49:29.247Z,998.90
2019-01-29T06:50:29.273Z,998.99
2019-01-29T06:51:29.293Z,998.96
2019-01-29T06:52:29.311Z,998.96
2019-01-29T06:53:29.330Z,998.98
2019-01-29T06:54:34.136Z,998.97
2019-01-29T06:55:29.372Z,998.96
2019-01-29T06:56:29.466Z,999.00
2019-01-29T06:57:29.418Z,998.98
2019-01-29T06:58:29.436Z,998.96
2019-01-29T06:59:29.457Z,998.99
2019-01-29T07:00:29.475Z,998.99
2019-01-29T07:01:29.496Z,999.02
2019-01-29T07:02:29.519Z,998.98
2019-01-29T07:03:29.538Z,998.99
2019-01-29T07:04:29.561Z,998.98
2019-01-29T07:05:29.580Z,999.00
2019-01-29T07:06:29.605Z,998.96
2019-01-29T07:07:29.621Z,998.97
2019-01-29T07:08:29.644Z,998.89
2019-01-29T07:09:29.662Z,999.00
2019-01-29T07:10:29.687Z,999.00
2019-01-29T07:11:29.707Z,998.96
2019-01-29T07:12:29.727Z,999.03
2019-01-29T07:13:29.751Z,999.07
2019-01-29T07:14:29.766Z,999.04
2019-01-29T07:15:29.788Z,999.02
2019-01-29T07:16:29.810Z,999.04
2019-01-29T07:17:29.832Z,999.07
2019-01-29T07:18:29.852Z,999.05
2019-01-29T07:19:29.871Z,999.06
2019-01-29T07:20:29.894Z,999.05
2019-01-29T07:21:29.913Z,999.09
2019-01-29T07:22:29.933Z,999.06
2019-01-29T07:23:29.957Z,999.06
2019-01-29T07:24:29.977Z,999.12
2019-01-29T07:25:29.996Z,999.10
2019-01-29T07:26:30.017Z,999.12
2019-01-29T07:27:30.039Z,999.12
2019-01-29T07:28:30.059Z,999.14
2019-01-29T07:29:30.081Z,999.12
2019-01-29T07:30:30.101Z,999.11
2019-01-29T07:31:30.121Z,999.17
2019-01-29T07:32:30.144Z,999.22
2019-01-29T07:33:30.163Z,999.14
2019-01-29T07:34:30.185Z,999.22
2019-01-29T07:35:30.208Z,999.12
2019-01-29T07:36:30.225Z,999.18
2019-01-29T07:37:30.247Z,999.20
2019-01-29T07:38:30.270Z,999.22
2019-01-29T07:39:30.291Z,999.25
2019-01-29T07:40:30.311Z,999.27
2019-01-29T07:41:30.330Z,999.30
2019-01-29T07:42:30.353Z,999.26
2019-01-29T07:43:30.373Z,999.28
2019-01-29T07:44:30.396Z,999.32
2019-01-29T07:45:30.420Z,999.31
2019-01-29T07:46:30.493Z,999.30
2019-01-29T07:47:30.459Z,999.33
2019-01-29T07:48:30.476Z,999.33
2019-01-29T07:49:30.500Z,999.30
2019-01-29T07:50:30.519Z,999.26
2019-01-29T07:51:30.542Z,999.30
2019-01-29T07:52:30.560Z,999.34
2019-01-29T07:53:30.583Z,999.27
2019-01-29T07:54:33.433Z,999.29
2019-01-29T07:55:30.624Z,999.32
2019-01-29T07:56:30.652Z,999.30
2019-01-29T07:57:30.666Z,999.30
2019-01-29T07:58:30.686Z,999.23
2019-01-29T07:59:33.043Z,999.24
2019-01-29T08:00:30.729Z,999.27
2019-01-29T08:01:30.751Z,999.29
2019-01-29T08:02:30.773Z,999.18
2019-01-29T08:03:30.794Z,999.29
2019-01-29T08:04:30.813Z,999.22
2019-01-29T08:05:30.837Z,999.23
2019-01-29T08:06:30.856Z,999.29
2019-01-29T08:07:30.879Z,999.21
2019-01-29T08:08:30.900Z,999.25
2019-01-29T08:09:30.926Z,999.21
2019-01-29T08:10:30.940Z,999.20
2019-01-29T08:11:30.964Z,999.21
2019-01-29T08:12:30.984Z,999.22
2019-01-29T08:13:31.006Z,999.20
2019-01-29T08:14:31.028Z,999.19
2019-01-29T08:15:31.046Z,999.20
2019-01-29T08:16:31.067Z,999.23
2019-01-29T08:17:31.142Z,999.19
2019-01-29T08:18:31.268Z,999.16
2019-01-29T08:19:31.131Z,999.19
2019-01-29T08:20:31.152Z,999.18
2019-01-29T08:21:31.175Z,999.17
2019-01-29T08:22:31.198Z,999.25
2019-01-29T08:23:31.218Z,999.19
2019-01-29T08:24:31.236Z,999.22
2019-01-29T08:25:31.259Z,999.15
2019-01-29T08:26:31.280Z,999.10
2019-01-29T08:27:31.301Z,999.14
2019-01-29T08:28:31.323Z,999.19
2019-01-29T08:29:31.343Z,999.16
2019-01-29T08:30:31.365Z,999.18
2019-01-29T08:31:31.386Z,999.14
2019-01-29T08:32:31.409Z,999.14
2019-01-29T08:33:31.430Z,999.14
2019-01-29T08:34:31.453Z,999.14
2019-01-29T08:35:31.474Z,999.15
2019-01-29T08:36:31.501Z,999.11
2019-01-29T08:37:31.516Z,999.13
2019-01-29T08:38:31.535Z,999.11
2019-01-29T08:39:31.560Z,999.08
2019-01-29T08:40:31.579Z,999.10
2019-01-29T08:41:31.601Z,999.10
2019-01-29T08:42:31.622Z,999.04
2019-01-29T08:43:31.644Z,999.03
2019-01-29T08:44:31.664Z,999.02
2019-01-29T08:45:31.684Z,999.00
2019-01-29T08:46:31.706Z,999.03
2019-01-29T08:47:31.727Z,999.05
2019-01-29T08:48:31.750Z,999.06
2019-01-29T08:49:31.781Z,999.06
2019-01-29T08:50:31.791Z,999.06
2019-01-29T08:51:31.814Z,999.10
2019-01-29T08:52:31.835Z,999.07
2019-01-29T08:53:31.858Z,999.05
2019-01-29T08:54:31.880Z,999.10
2019-01-29T08:55:31.900Z,999.02
2019-01-29T08:56:31.919Z,999.07
2019-01-29T08:57:31.940Z,999.02
2019-01-29T08:58:31.962Z,999.06
2019-01-29T08:59:31.983Z,999.07
2019-01-29T09:00:32.006Z,999.11
2019-01-29T09:01:32.026Z,999.06
2019-01-29T09:02:32.051Z,999.10
2019-01-29T09:03:32.070Z,999.07
2019-01-29T09:04:32.092Z,999.05
2019-01-29T09:05:32.113Z,999.02
2019-01-29T09:06:32.134Z,999.00
2019-01-29T09:07:32.155Z,999.00
2019-01-29T09:08:32.175Z,999.01
2019-01-29T09:09:32.197Z,998.98
2019-01-29T09:10:32.219Z,999.00
2019-01-29T09:11:32.297Z,998.98
2019-01-29T09:12:32.261Z,998.98
2019-01-29T09:13:32.284Z,998.96
2019-01-29T09:14:32.305Z,998.95
2019-01-29T09:15:32.330Z,999.01
2019-01-29T09:16:32.349Z,998.99
2019-01-29T09:17:32.369Z,998.98
2019-01-29T09:18:32.394Z,998.94
2019-01-29T09:19:32.414Z,998.94
2019-01-29T09:20:32.433Z,998.99
2019-01-29T09:21:32.455Z,998.89
2019-01-29T09:22:32.479Z,998.96
2019-01-29T09:23:32.501Z,998.94
2019-01-29T09:24:32.520Z,998.92
2019-01-29T09:25:32.544Z,998.89
2019-01-29T09:26:32.565Z,998.93
2019-01-29T09:27:32.587Z,998.88
2019-01-29T09:28:32.607Z,998.85
2019-01-29T09:29:32.629Z,998.86
2019-01-29T09:30:32.650Z,998.86
2019-01-29T09:31:32.672Z,998.85
2019-01-29T09:32:32.698Z,998.85
2019-01-29T09:33:32.715Z,998.86
2019-01-29T09:34:32.742Z,998.87
2019-01-29T09:35:32.761Z,998.80
2019-01-29T09:36:33.965Z,998.77
2019-01-29T09:37:32.804Z,998.76
2019-01-29T09:38:32.825Z,998.79
2019-01-29T09:39:32.847Z,998.85
2019-01-29T09:40:32.866Z,998.80
2019-01-29T09:41:32.891Z,998.85
2019-01-29T09:42:32.976Z,998.81
2019-01-29T09:43:32.936Z,998.82
2019-01-29T09:44:32.955Z,998.83
2019-01-29T09:45:32.978Z,998.90
2019-01-29T09:46:32.999Z,998.84
2019-01-29T09:47:33.020Z,998.84
2019-01-29T09:48:33.040Z,998.84
2019-01-29T09:49:33.062Z,998.77
2019-01-29T09:50:33.087Z,998.83
2019-01-29T09:51:33.108Z,998.81
2019-01-29T09:52:33.132Z,998.88
2019-01-29T09:53:33.152Z,998.95
2019-01-29T09:54:33.171Z,998.79
2019-01-29T09:55:33.194Z,998.71
2019-01-29T09:56:33.215Z,998.69
2019-01-29T09:57:33.240Z,998.70
2019-01-29T09:58:33.262Z,998.70
2019-01-29T09:59:33.285Z,998.72
2019-01-29T10:00:33.305Z,998.66
2019-01-29T10:01:33.330Z,998.69
2019-01-29T10:02:33.353Z,998.66
2019-01-29T10:03:33.380Z,998.64
2019-01-29T10:04:33.396Z,998.70
2019-01-29T10:05:33.418Z,998.70
2019-01-29T10:06:33.444Z,998.64
2019-01-29T10:07:33.461Z,998.70
2019-01-29T10:08:33.484Z,998.66
2019-01-29T10:09:33.506Z,998.76
2019-01-29T10:10:33.531Z,998.66
2019-01-29T10:11:33.554Z,998.61
2019-01-29T10:12:33.573Z,998.53
2019-01-29T10:13:33.596Z,998.55
2019-01-29T10:14:33.622Z,998.52
2019-01-29T10:15:33.645Z,998.48
2019-01-29T10:16:33.665Z,998.48
2019-01-29T10:17:33.688Z,998.47
2019-01-29T10:18:33.712Z,998.50
2019-01-29T10:19:33.734Z,998.48
2019-01-29T10:20:33.756Z,998.52
2019-01-29T10:21:33.778Z,998.47
2019-01-29T10:22:33.807Z,998.47
2019-01-29T10:23:33.827Z,998.50
2019-01-29T10:24:33.846Z,998.52
2019-01-29T10:25:37.746Z,998.47
2019-01-29T10:26:33.935Z,998.51
2019-01-29T10:27:33.918Z,998.47
2019-01-29T10:28:33.941Z,998.49
2019-01-29T10:29:33.963Z,998.40
2019-01-29T10:30:33.989Z,998.42
2019-01-29T10:31:34.008Z,998.40
2019-01-29T10:32:34.030Z,998.46
2019-01-29T10:33:34.056Z,998.45
2019-01-29T10:34:34.078Z,998.37
2019-01-29T10:35:34.099Z,998.42
2019-01-29T10:36:34.122Z,998.40
2019-01-29T10:37:34.148Z,998.42
2019-01-29T10:38:34.169Z,998.40
2019-01-29T10:39:34.194Z,998.35
2019-01-29T10:40:34.215Z,998.35
2019-01-29T10:41:34.237Z,998.37
2019-01-29T10:42:34.263Z,998.35
2019-01-29T10:43:34.284Z,998.36
2019-01-29T10:44:34.306Z,998.43
2019-01-29T10:45:34.334Z,998.39
2019-01-29T10:46:34.370Z,998.26
2019-01-29T10:47:34.378Z,998.23
2019-01-29T10:48:34.401Z,998.25
2019-01-29T10:49:34.424Z,998.20
2019-01-29T10:50:34.447Z,998.43
2019-01-29T10:51:34.469Z,998.22
2019-01-29T10:52:34.498Z,998.16
2019-01-29T10:53:34.517Z,998.01
2019-01-29T10:54:34.542Z,998.05
2019-01-29T10:55:34.563Z,998.10
2019-01-29T10:56:34.587Z,998.15
2019-01-29T10:57:34.611Z,998.38
2019-01-29T10:58:34.636Z,998.30
2019-01-29T10:59:34.662Z,997.93
2019-01-29T11:00:34.684Z,997.91
2019-01-29T11:01:34.706Z,997.92
2019-01-29T11:02:34.731Z,997.93
2019-01-29T11:03:34.832Z,998.02
2019-01-29T11:04:34.776Z,998.04
2019-01-29T11:05:34.802Z,997.93
2019-01-29T11:06:34.826Z,997.87
2019-01-29T11:07:34.852Z,997.95
2019-01-29T11:08:34.876Z,997.89
2019-01-29T11:09:34.897Z,998.02
2019-01-29T11:10:34.924Z,997.82
2019-01-29T11:11:34.948Z,997.75
2019-01-29T11:12:34.973Z,997.73
2019-01-29T11:13:34.995Z,997.79
2019-01-29T11:14:35.017Z,997.75
2019-01-29T11:15:35.041Z,997.77
2019-01-29T11:16:35.064Z,997.70
2019-01-29T11:17:35.090Z,997.72
2019-01-29T11:18:35.112Z,997.67
2019-01-29T11:19:35.136Z,997.69
2019-01-29T11:20:35.159Z,997.67
2019-01-29T11:21:35.183Z,997.76
2019-01-29T11:22:35.206Z,997.67
2019-01-29T11:23:35.232Z,997.68
2019-01-29T11:24:35.252Z,997.69
2019-01-29T11:25:35.276Z,997.63
2019-01-29T11:26:35.300Z,997.65
2019-01-29T11:27:35.325Z,997.72
2019-01-29T11:28:35.347Z,997.65
2019-01-29T11:29:35.369Z,997.65
2019-01-29T11:30:35.393Z,997.66
2019-01-29T11:31:35.418Z,997.73
2019-01-29T11:32:35.440Z,997.89
2019-01-29T11:33:35.461Z,997.72
2019-01-29T11:34:35.486Z,997.72
2019-01-29T11:35:35.510Z,997.91
2019-01-29T11:36:35.532Z,997.65
2019-01-29T11:37:35.555Z,997.84
2019-01-29T11:38:35.581Z,997.71
2019-01-29T11:39:35.603Z,997.59
2019-01-29T11:40:35.623Z,997.61
2019-01-29T11:41:35.646Z,997.50
2019-01-29T11:42:35.670Z,997.48
2019-01-29T11:43:35.696Z,997.47
2019-01-29T11:44:35.720Z,997.52
2019-01-29T11:45:35.741Z,997.56
2019-01-29T11:46:35.767Z,997.49
2019-01-29T11:47:35.788Z,997.51
2019-01-29T11:48:35.810Z,997.51
2019-01-29T11:49:35.837Z,997.63
2019-01-29T11:50:35.861Z,997.86
2019-01-29T11:51:35.884Z,997.50
2019-01-29T11:52:35.915Z,997.33
2019-01-29T11:53:35.929Z,997.31
2019-01-29T11:54:35.954Z,997.29
2019-01-29T11:55:35.980Z,997.36
2019-01-29T11:56:36.006Z,997.31
2019-01-29T11:57:36.025Z,997.31
2019-01-29T11:58:36.049Z,997.65
2019-01-29T11:59:36.076Z,997.28
2019-01-29T12:00:36.100Z,997.30
2019-01-29T12:01:36.122Z,997.27
2019-01-29T12:02:36.149Z,997.33
2019-01-29T12:03:36.173Z,997.93
2019-01-29T12:04:36.197Z,997.93
2019-01-29T12:05:36.221Z,997.59
2019-01-29T12:06:36.246Z,997.32
2019-01-29T12:07:36.275Z,997.23
2019-01-29T12:08:36.294Z,997.18
2019-01-29T12:09:36.321Z,997.19
2019-01-29T12:10:36.346Z,997.34
2019-01-29T12:11:36.372Z,997.13
2019-01-29T12:12:36.397Z,997.14
2019-01-29T12:13:36.421Z,997.15
2019-01-29T12:14:36.447Z,997.18
2019-01-29T12:15:36.469Z,997.38
2019-01-29T12:16:36.497Z,997.49
2019-01-29T12:17:36.520Z,997.53
2019-01-29T12:18:36.548Z,997.20
2019-01-29T12:19:36.568Z,997.41
2019-01-29T12:20:36.594Z,997.87
2019-01-29T12:21:36.619Z,997.23
2019-01-29T12:22:36.648Z,997.23
2019-01-29T12:23:36.669Z,997.12
2019-01-29T12:24:36.692Z,997.19
2019-01-29T12:25:36.718Z,997.19
2019-01-29T12:26:36.741Z,997.87
2019-01-29T12:27:36.781Z,997.29
2019-01-29T12:28:36.793Z,996.98